Time,TemperatureF,DewpointF,PressureIn,WindDirection,WindDirectionDegrees,WindSpeedMPH,WindSpeedGustMPH,Humidity,HourlyPrecipIn,Conditions,Clouds,dailyrainin,SoftwareType,DateUTC
2013-01-31 00:00:00,55.1,53.7,29.24,South,178,15.0,15.0,95,0.09,,,0.07,Wunderground v.1.15,2013-01-31 05:00:00,
2013-01-31 00:01:00,55.1,53.7,29.24,South,188,17.0,17.0,95,0.09,,,0.07,Wunderground v.1.15,2013-01-31 05:01:00,
2013-01-31 00:03:00,55.1,53.7,29.24,SSW,197,16.0,17.0,95,0.09,,,0.07,Wunderground v.1.15,2013-01-31 05:03:00,
2013-01-31 00:07:00,55.3,53.9,29.24,SSW,198,15.0,20.0,95,0.06,,,0.07,Wunderground v.1.15,2013-01-31 05:07:00,
2013-01-31 00:13:00,55.3,53.9,29.22,SSW,194,11.0,19.0,95,0.05,,,0.08,Wunderground v.1.15,2013-01-31 05:13:00,
2013-01-31 00:19:00,55.1,53.7,29.22,SSW,200,15.0,19.0,95,0.06,,,0.09,Wunderground v.1.15,2013-01-31 05:19:00,
2013-01-31 00:24:00,55.1,53.7,29.22,SSW,204,9.0,15.0,95,0.06,,,0.09,Wunderground v.1.15,2013-01-31 05:24:00,
2013-01-31 00:29:00,55.1,53.7,29.21,South,189,11.0,15.0,95,0.05,,,0.09,Wunderground v.1.15,2013-01-31 05:29:00,
2013-01-31 00:35:00,54.8,53.4,29.21,South,188,7.0,12.0,95,0.04,,,0.10,Wunderground v.1.15,2013-01-31 05:35:00,
2013-01-31 00:40:00,54.8,53.4,29.21,South,191,11.0,11.0,95,0.04,,,0.10,Wunderground v.1.15,2013-01-31 05:40:00,
2013-01-31 00:46:00,54.7,53.3,29.18,SSW,192,6.0,13.0,95,0.07,,,0.11,Wunderground v.1.15,2013-01-31 05:46:00,
2013-01-31 00:51:00,54.8,53.7,29.18,South,180,7.0,12.0,96,0.06,,,0.11,Wunderground v.1.15,2013-01-31 05:51:00,
2013-01-31 00:57:00,55.0,53.9,29.17,South,184,11.0,12.0,96,0.04,,,0.12,Wunderground v.1.15,2013-01-31 05:57:00,
2013-01-31 01:02:00,55.4,54.3,29.17,SSW,198,13.0,13.0,96,0.10,,,0.13,Wunderground v.1.15,2013-01-31 06:02:00,
2013-01-31 01:08:00,55.4,54.0,29.17,South,186,3.0,13.0,95,0.09,,,0.13,Wunderground v.1.15,2013-01-31 06:08:00,
2013-01-31 01:14:00,55.6,54.2,29.15,South,179,6.0,17.0,95,0.06,,,0.14,Wunderground v.1.15,2013-01-31 06:14:00,
2013-01-31 01:20:00,55.6,54.2,29.15,South,190,11.0,11.0,95,0.06,,,0.14,Wunderground v.1.15,2013-01-31 06:20:00,
2013-01-31 01:25:00,55.7,53.4,29.15,South,171,11.0,15.0,92,0.06,,,0.15,Wunderground v.1.15,2013-01-31 06:25:00,
2013-01-31 01:31:00,55.9,54.2,29.12,SSW,198,5.0,11.0,94,0.07,,,0.16,Wunderground v.1.15,2013-01-31 06:31:00,
2013-01-31 01:36:00,55.7,54.3,29.12,SSW,193,10.0,17.0,95,0.07,,,0.16,Wunderground v.1.15,2013-01-31 06:36:00,
2013-01-31 01:42:00,55.6,53.9,29.10,South,187,6.0,10.0,94,0.09,,,0.17,Wunderground v.1.15,2013-01-31 06:42:00,
2013-01-31 01:48:00,55.4,53.7,29.10,SSW,194,6.0,17.0,94,0.09,,,0.18,Wunderground v.1.15,2013-01-31 06:48:00,
2013-01-31 01:53:00,55.3,53.6,29.10,SSW,193,7.0,8.0,94,0.08,,,0.19,Wunderground v.1.15,2013-01-31 06:53:00,
2013-01-31 01:59:00,55.0,53.3,29.09,SSW,193,11.0,14.0,94,0.08,,,0.19,Wunderground v.1.15,2013-01-31 06:59:00,
2013-01-31 02:04:00,54.8,53.4,29.09,South,175,13.0,14.0,95,0.06,,,0.20,Wunderground v.1.15,2013-01-31 07:04:00,
2013-01-31 02:09:00,54.8,53.4,29.09,South,171,4.0,14.0,95,0.06,,,0.20,Wunderground v.1.15,2013-01-31 07:09:00,
2013-01-31 02:14:00,54.5,52.8,29.06,South,190,5.0,9.0,94,0.05,,,0.21,Wunderground v.1.15,2013-01-31 07:14:00,
2013-01-31 02:19:00,54.5,53.1,29.06,SSW,200,6.0,11.0,95,0.05,,,0.21,Wunderground v.1.15,2013-01-31 07:19:00,
2013-01-31 02:24:00,54.4,52.7,29.06,SSW,192,8.0,14.0,94,0.05,,,0.21,Wunderground v.1.15,2013-01-31 07:24:00,
2013-01-31 02:29:00,54.2,52.5,29.05,South,177,11.0,14.0,94,0.05,,,0.22,Wunderground v.1.15,2013-01-31 07:29:00,
2013-01-31 02:34:00,54.1,52.4,29.05,SSW,192,13.0,13.0,94,0.05,,,0.22,Wunderground v.1.15,2013-01-31 07:34:00,
2013-01-31 02:39:00,54.1,52.4,29.05,SSW,192,9.0,16.0,94,0.06,,,0.23,Wunderground v.1.15,2013-01-31 07:39:00,
2013-01-31 02:44:00,54.1,52.4,29.02,SSW,198,11.0,13.0,94,0.06,,,0.23,Wunderground v.1.15,2013-01-31 07:44:00,
2013-01-31 02:49:00,53.8,52.1,29.02,SSW,192,9.0,14.0,94,0.04,,,0.23,Wunderground v.1.15,2013-01-31 07:49:00,
2013-01-31 02:54:00,53.6,51.9,29.02,SSW,195,10.0,14.0,94,0.04,,,0.24,Wunderground v.1.15,2013-01-31 07:54:00,
2013-01-31 02:59:00,53.5,51.8,29.00,South,186,10.0,14.0,94,0.04,,,0.24,Wunderground v.1.15,2013-01-31 07:59:00,
2013-01-31 03:04:00,53.3,51.9,29.00,SSW,194,10.0,13.0,95,0.04,,,0.24,Wunderground v.1.15,2013-01-31 08:04:00,
2013-01-31 03:09:00,53.2,51.8,29.00,SSW,194,10.0,14.0,95,0.00,,,0.24,Wunderground v.1.15,2013-01-31 08:09:00,
2013-01-31 03:14:00,53.2,51.8,28.99,SSW,194,12.0,19.0,95,0.00,,,0.25,Wunderground v.1.15,2013-01-31 08:14:00,
2013-01-31 03:19:00,53.2,51.8,28.99,SSW,203,11.0,19.0,95,0.00,,,0.25,Wunderground v.1.15,2013-01-31 08:19:00,
2013-01-31 03:24:00,53.2,51.8,28.99,South,188,9.0,16.0,95,0.00,,,0.25,Wunderground v.1.15,2013-01-31 08:24:00,
2013-01-31 03:29:00,53.1,51.7,28.98,SSW,194,8.0,16.0,95,0.00,,,0.25,Wunderground v.1.15,2013-01-31 08:29:00,
2013-01-31 03:34:00,52.9,51.5,28.98,SSW,200,12.0,15.0,95,0.00,,,0.26,Wunderground v.1.15,2013-01-31 08:34:00,
2013-01-31 03:39:00,52.9,51.5,28.98,SSW,195,8.0,16.0,95,0.00,,,0.26,Wunderground v.1.15,2013-01-31 08:39:00,
2013-01-31 03:44:00,52.8,51.1,28.97,South,169,10.0,14.0,94,0.00,,,0.26,Wunderground v.1.15,2013-01-31 08:44:00,
2013-01-31 03:49:00,52.8,51.4,28.97,South,188,9.0,14.0,95,0.04,,,0.27,Wunderground v.1.15,2013-01-31 08:49:00,
2013-01-31 03:54:00,53.1,51.7,28.97,South,185,9.0,12.0,95,0.04,,,0.27,Wunderground v.1.15,2013-01-31 08:54:00,
2013-01-31 03:59:00,53.3,51.6,28.93,South,169,3.0,15.0,94,0.07,,,0.28,Wunderground v.1.15,2013-01-31 08:59:00,
2013-01-31 04:04:00,53.2,51.5,28.93,South,178,6.0,12.0,94,0.07,,,0.28,Wunderground v.1.15,2013-01-31 09:04:00,
2013-01-31 04:09:00,53.1,51.4,28.93,South,187,13.0,14.0,94,0.05,,,0.28,Wunderground v.1.15,2013-01-31 09:09:00,
2013-01-31 04:14:00,52.9,51.2,28.90,South,169,5.0,12.0,94,0.00,,,0.28,Wunderground v.1.15,2013-01-31 09:14:00,
2013-01-31 04:19:00,52.8,51.1,28.90,South,177,4.0,12.0,94,0.00,,,0.28,Wunderground v.1.15,2013-01-31 09:19:00,
2013-01-31 04:24:00,52.8,51.1,28.90,South,185,6.0,13.0,94,0.00,,,0.28,Wunderground v.1.15,2013-01-31 09:24:00,
2013-01-31 04:29:00,52.8,51.4,28.90,SE,140,3.0,13.0,95,0.00,,,0.28,Wunderground v.1.15,2013-01-31 09:29:00,
2013-01-31 04:34:00,52.8,51.1,28.90,SSE,164,9.0,12.0,94,0.00,,,0.29,Wunderground v.1.15,2013-01-31 09:34:00,
2013-01-31 04:39:00,52.9,51.5,28.90,South,172,7.0,15.0,95,0.00,,,0.29,Wunderground v.1.15,2013-01-31 09:39:00,
2013-01-31 04:45:00,53.1,51.7,28.87,South,190,15.0,15.0,95,0.00,,,0.00,Wunderground v.1.15,2013-01-31 09:45:00,
2013-01-31 04:50:00,53.3,51.6,28.87,South,170,7.0,10.0,94,0.05,,,0.01,Wunderground v.1.15,2013-01-31 09:50:00,
2013-01-31 04:55:00,53.5,51.8,28.87,SSE,165,10.0,15.0,94,0.11,,,0.02,Wunderground v.1.15,2013-01-31 09:55:00,
2013-01-31 05:00:00,53.5,51.8,28.85,South,174,10.0,10.0,94,0.06,,,0.02,Wunderground v.1.15,2013-01-31 10:00:00,
2013-01-31 05:05:00,53.5,51.8,28.85,South,184,7.0,16.0,94,0.04,,,0.03,Wunderground v.1.15,2013-01-31 10:05:00,
2013-01-31 05:10:00,53.5,51.8,28.86,South,181,5.0,8.0,94,0.04,,,0.03,Wunderground v.1.15,2013-01-31 10:10:00,
2013-01-31 05:15:00,53.3,51.6,28.86,SSW,199,11.0,12.0,94,0.09,,,0.04,Wunderground v.1.15,2013-01-31 10:15:00,
2013-01-31 05:20:00,53.1,51.4,28.86,South,182,9.0,12.0,94,0.07,,,0.05,Wunderground v.1.15,2013-01-31 10:20:00,
2013-01-31 05:25:00,52.8,51.1,28.85,South,177,11.0,15.0,94,0.10,,,0.05,Wunderground v.1.15,2013-01-31 10:25:00,
2013-01-31 05:30:00,52.8,51.4,28.85,SSW,197,5.0,12.0,95,0.12,,,0.07,Wunderground v.1.15,2013-01-31 10:30:00,
2013-01-31 05:35:00,52.8,51.4,28.85,South,188,9.0,18.0,95,0.12,,,0.07,Wunderground v.1.15,2013-01-31 10:35:00,
2013-01-31 05:40:00,52.9,51.5,28.84,South,178,11.0,11.0,95,0.18,,,0.09,Wunderground v.1.15,2013-01-31 10:40:00,
2013-01-31 05:45:00,53.1,51.7,28.84,SSW,194,9.0,15.0,95,0.16,,,0.10,Wunderground v.1.15,2013-01-31 10:45:00,
2013-01-31 05:50:00,53.1,51.7,28.84,SSE,164,5.0,10.0,95,0.07,,,0.10,Wunderground v.1.15,2013-01-31 10:50:00,
2013-01-31 05:56:00,53.2,51.8,28.82,SSE,165,4.0,13.0,95,0.04,,,0.10,Wunderground v.1.15,2013-01-31 10:56:00,
2013-01-31 06:01:00,53.2,51.8,28.82,South,190,12.0,12.0,95,0.04,,,0.11,Wunderground v.1.15,2013-01-31 11:01:00,
2013-01-31 06:06:00,53.2,51.8,28.82,SSW,199,7.0,13.0,95,0.04,,,0.11,Wunderground v.1.15,2013-01-31 11:06:00,
2013-01-31 06:11:00,53.1,51.7,28.84,South,175,7.0,20.0,95,0.04,,,0.11,Wunderground v.1.15,2013-01-31 11:11:00,
2013-01-31 06:16:00,53.1,51.7,28.84,South,188,5.0,20.0,95,0.00,,,0.11,Wunderground v.1.15,2013-01-31 11:16:00,
2013-01-31 06:21:00,52.9,51.5,28.84,South,173,7.0,14.0,95,0.00,,,0.12,Wunderground v.1.15,2013-01-31 11:21:00,
2013-01-31 06:26:00,52.9,51.5,28.78,South,181,11.0,14.0,95,0.00,,,0.12,Wunderground v.1.15,2013-01-31 11:26:00,
2013-01-31 06:31:00,52.9,51.5,28.78,SE,146,6.0,12.0,95,0.00,,,0.12,Wunderground v.1.15,2013-01-31 11:31:00,
2013-01-31 06:36:00,52.8,51.4,28.78,SSE,159,8.0,12.0,95,0.00,,,0.12,Wunderground v.1.15,2013-01-31 11:36:00,
2013-01-31 06:41:00,52.5,51.1,28.78,SSE,160,6.0,9.0,95,0.00,,,0.12,Wunderground v.1.15,2013-01-31 11:41:00,
2013-01-31 06:46:00,52.5,51.1,28.78,South,172,4.0,11.0,95,0.00,,,0.12,Wunderground v.1.15,2013-01-31 11:46:00,
2013-01-31 06:51:00,52.8,51.4,28.78,SSW,194,7.0,11.0,95,0.00,,,0.12,Wunderground v.1.15,2013-01-31 11:51:00,
2013-01-31 06:56:00,53.1,51.7,28.82,SSW,200,15.0,16.0,95,0.00,,,0.12,Wunderground v.1.15,2013-01-31 11:56:00,
2013-01-31 07:01:00,52.6,50.9,28.82,WNW,286,10.0,17.0,94,0.00,,,0.12,Wunderground v.1.15,2013-01-31 12:01:00,
2013-01-31 07:06:00,51.3,49.6,28.82,NW,308,9.0,17.0,94,0.00,,,0.13,Wunderground v.1.15,2013-01-31 12:06:00,
2013-01-31 07:11:00,50.4,48.2,28.86,West,271,12.0,17.0,92,0.10,,,0.14,Wunderground v.1.15,2013-01-31 12:11:00,
2013-01-31 07:16:00,49.2,43.6,28.86,NW,313,12.0,24.0,81,0.10,,,0.14,Wunderground v.1.15,2013-01-31 12:16:00,
2013-01-31 07:21:00,48.9,42.0,28.86,West,280,16.0,18.0,77,0.05,,,0.14,Wunderground v.1.15,2013-01-31 12:21:00,
2013-01-31 07:26:00,48.8,38.7,28.87,WNW,286,27.0,36.0,68,0.04,,,0.14,Wunderground v.1.15,2013-01-31 12:26:00,
2013-01-31 07:31:00,48.6,36.6,28.87,West,281,15.0,31.0,63,0.00,,,0.14,Wunderground v.1.15,2013-01-31 12:31:00,
2013-01-31 07:36:00,48.5,37.7,28.87,West,273,14.0,31.0,66,0.00,,,0.14,Wunderground v.1.15,2013-01-31 12:36:00,
2013-01-31 07:41:00,48.3,37.1,28.86,West,276,8.0,15.0,65,0.00,,,0.14,Wunderground v.1.15,2013-01-31 12:41:00,
2013-01-31 07:46:00,48.2,37.0,28.86,WNW,297,5.0,16.0,65,0.00,,,0.14,Wunderground v.1.15,2013-01-31 12:46:00,
2013-01-31 07:51:00,48.3,36.7,28.86,West,270,15.0,15.0,64,0.00,,,0.14,Wunderground v.1.15,2013-01-31 12:51:00,
2013-01-31 07:56:00,48.3,36.3,28.89,WSW,257,8.0,17.0,63,0.00,,,0.14,Wunderground v.1.15,2013-01-31 12:56:00,
2013-01-31 08:02:00,48.3,35.5,28.89,West,277,6.0,11.0,61,0.00,,,0.14,Wunderground v.1.15,2013-01-31 13:02:00,
2013-01-31 08:07:00,48.2,35.4,28.89,West,259,6.0,15.0,61,0.00,,,0.14,Wunderground v.1.15,2013-01-31 13:07:00,
2013-01-31 08:12:00,47.9,35.1,28.92,NW,309,13.0,14.0,61,0.00,,,0.14,Wunderground v.1.15,2013-01-31 13:12:00,
2013-01-31 08:17:00,47.3,34.5,28.92,NW,314,10.0,14.0,61,0.00,,,0.14,Wunderground v.1.15,2013-01-31 13:17:00,
2013-01-31 08:22:00,46.8,34.9,28.92,NW,324,4.0,8.0,63,0.00,,,0.14,Wunderground v.1.15,2013-01-31 13:22:00,
2013-01-31 08:27:00,46.2,35.1,28.94,WNW,303,9.0,9.0,65,0.00,,,0.15,Wunderground v.1.15,2013-01-31 13:27:00,
2013-01-31 08:32:00,45.8,35.1,28.94,WNW,297,1.0,3.0,66,0.11,,,0.16,Wunderground v.1.15,2013-01-31 13:32:00,
2013-01-31 08:37:00,44.6,35.1,28.94,WNW,284,4.0,5.0,69,0.17,,,0.17,Wunderground v.1.15,2013-01-31 13:37:00,
2013-01-31 08:42:00,44.9,35.0,28.97,South,186,7.0,7.0,68,0.09,,,0.17,Wunderground v.1.15,2013-01-31 13:42:00,
2013-01-31 08:47:00,44.3,34.0,28.97,South,189,4.0,11.0,67,0.07,,,0.18,Wunderground v.1.15,2013-01-31 13:47:00,
2013-01-31 08:52:00,43.8,35.0,28.97,SSE,155,5.0,5.0,71,0.08,,,0.19,Wunderground v.1.15,2013-01-31 13:52:00,
2013-01-31 08:57:00,43.2,35.5,28.98,ESE,112,4.0,7.0,74,0.08,,,0.19,Wunderground v.1.15,2013-01-31 13:57:00,
2013-01-31 09:02:00,42.3,34.9,28.98,ESE,110,4.0,10.0,75,0.06,,,0.20,Wunderground v.1.15,2013-01-31 14:02:00,
2013-01-31 09:07:00,41.8,35.4,28.98,SE,126,5.0,10.0,78,0.06,,,0.20,Wunderground v.1.15,2013-01-31 14:07:00,
2013-01-31 09:12:00,41.5,35.8,28.99,East,94,4.0,7.0,80,0.06,,,0.20,Wunderground v.1.15,2013-01-31 14:12:00,
2013-01-31 09:17:00,41.1,35.7,28.99,East,100,3.0,9.0,81,0.04,,,0.20,Wunderground v.1.15,2013-01-31 14:17:00,
2013-01-31 09:22:00,40.9,35.2,28.99,ESE,123,6.0,10.0,80,0.00,,,0.20,Wunderground v.1.15,2013-01-31 14:22:00,
2013-01-31 09:27:00,41.2,34.2,29.00,SSW,200,10.0,11.0,76,0.00,,,0.20,Wunderground v.1.15,2013-01-31 14:27:00,
2013-01-31 09:32:00,42.2,32.4,29.00,SSW,200,4.0,7.0,68,0.00,,,0.20,Wunderground v.1.15,2013-01-31 14:32:00,
2013-01-31 09:37:00,42.3,31.7,29.00,SSW,202,6.0,16.0,66,0.00,,,0.20,Wunderground v.1.15,2013-01-31 14:37:00,
2013-01-31 09:42:00,42.2,30.9,29.01,SW,227,12.0,19.0,64,0.00,,,0.20,Wunderground v.1.15,2013-01-31 14:42:00,
2013-01-31 09:47:00,42.1,31.6,29.01,SW,221,9.0,20.0,66,0.00,,,0.20,Wunderground v.1.15,2013-01-31 14:47:00,
2013-01-31 09:52:00,41.6,31.1,29.01,WSW,240,10.0,20.0,66,0.00,,,0.20,Wunderground v.1.15,2013-01-31 14:52:00,
2013-01-31 09:57:00,41.3,31.5,29.04,WSW,242,10.0,20.0,68,0.00,,,0.20,Wunderground v.1.15,2013-01-31 14:57:00,
2013-01-31 10:02:00,41.1,30.6,29.04,SW,227,11.0,16.0,66,0.00,,,0.20,Wunderground v.1.15,2013-01-31 15:02:00,
2013-01-31 10:07:00,41.2,29.9,29.04,SW,236,8.0,18.0,64,0.00,,,0.20,Wunderground v.1.15,2013-01-31 15:07:00,
2013-01-31 10:12:00,41.1,29.5,29.04,WSW,257,16.0,17.0,63,0.00,,,0.20,Wunderground v.1.15,2013-01-31 15:12:00,
2013-01-31 10:17:00,41.3,29.3,29.04,West,267,12.0,20.0,62,0.00,,,0.20,Wunderground v.1.15,2013-01-31 15:17:00,
2013-01-31 10:22:00,41.3,27.6,29.04,WSW,254,9.0,17.0,58,0.00,,,0.20,Wunderground v.1.15,2013-01-31 15:22:00,
2013-01-31 10:27:00,41.2,27.5,29.06,West,274,12.0,18.0,58,0.00,,,0.20,Wunderground v.1.15,2013-01-31 15:27:00,
2013-01-31 10:33:00,41.8,28.9,29.06,SW,226,16.0,22.0,60,0.00,,,0.20,Wunderground v.1.15,2013-01-31 15:33:00,
2013-01-31 10:38:00,41.8,28.5,29.06,West,273,10.0,22.0,59,0.00,,,0.20,Wunderground v.1.15,2013-01-31 15:38:00,
2013-01-31 10:43:00,42.1,28.4,29.07,SW,234,12.0,18.0,58,0.00,,,0.20,Wunderground v.1.15,2013-01-31 15:43:00,
2013-01-31 10:47:00,41.8,26.8,29.07,WSW,242,9.0,20.0,55,0.00,,,0.20,Wunderground v.1.15,2013-01-31 15:47:00,
2013-01-31 10:52:00,41.8,25.0,29.07,WSW,240,13.0,18.0,51,0.00,,,0.20,Wunderground v.1.15,2013-01-31 15:52:00,
2013-01-31 10:57:00,41.5,25.2,29.08,WSW,246,13.0,18.0,52,0.00,,,0.20,Wunderground v.1.15,2013-01-31 15:57:00,
2013-01-31 11:03:00,41.1,25.3,29.08,SW,220,9.0,20.0,53,0.00,,,0.20,Wunderground v.1.15,2013-01-31 16:03:00,
2013-01-31 11:07:00,40.9,25.1,29.08,SW,223,13.0,21.0,53,0.00,,,0.20,Wunderground v.1.15,2013-01-31 16:07:00,
2013-01-31 11:13:00,40.6,26.1,29.10,WSW,257,19.0,23.0,56,0.00,,,0.20,Wunderground v.1.15,2013-01-31 16:13:00,
2013-01-31 11:17:00,40.6,24.3,29.10,WSW,257,12.0,23.0,52,0.00,,,0.20,Wunderground v.1.15,2013-01-31 16:17:00,
2013-01-31 11:22:00,40.9,23.7,29.10,WSW,244,13.0,16.0,50,0.00,,,0.20,Wunderground v.1.15,2013-01-31 16:22:00,
2013-01-31 11:28:00,41.3,25.4,29.09,WSW,247,9.0,18.0,53,0.00,,,0.20,Wunderground v.1.15,2013-01-31 16:28:00,
2013-01-31 11:33:00,40.9,23.2,29.09,WNW,293,7.0,20.0,49,0.00,,,0.20,Wunderground v.1.15,2013-01-31 16:33:00,
2013-01-31 11:38:00,40.8,24.1,29.09,SW,216,7.0,20.0,51,0.00,,,0.20,Wunderground v.1.15,2013-01-31 16:38:00,
2013-01-31 11:43:00,40.8,25.4,29.10,SW,215,10.0,17.0,54,0.00,,,0.20,Wunderground v.1.15,2013-01-31 16:43:00,
2013-01-31 11:48:00,41.8,26.8,29.10,SW,236,12.0,17.0,55,0.00,,,0.20,Wunderground v.1.15,2013-01-31 16:48:00,
2013-01-31 11:53:00,41.5,22.7,29.10,SSW,192,17.0,17.0,47,0.00,,,0.20,Wunderground v.1.15,2013-01-31 16:53:00,
2013-01-31 11:58:00,41.2,22.5,29.10,WSW,250,13.0,22.0,47,0.00,,,0.20,Wunderground v.1.15,2013-01-31 16:58:00,
2013-01-31 12:03:00,41.1,25.3,29.10,SSW,201,13.0,21.0,53,0.00,,,0.20,Wunderground v.1.15,2013-01-31 17:03:00,
2013-01-31 12:08:00,40.6,24.3,29.10,SW,225,16.0,23.0,52,0.00,,,0.20,Wunderground v.1.15,2013-01-31 17:08:00,
2013-01-31 12:13:00,39.9,23.2,29.12,SW,225,11.0,21.0,51,0.00,,,0.20,Wunderground v.1.15,2013-01-31 17:13:00,
2013-01-31 12:18:00,40.1,23.9,29.12,WSW,241,13.0,23.0,52,0.00,,,0.20,Wunderground v.1.15,2013-01-31 17:18:00,
2013-01-31 12:23:00,39.9,23.7,29.12,SW,229,12.0,26.0,52,0.00,,,0.20,Wunderground v.1.15,2013-01-31 17:23:00,
2013-01-31 12:28:00,39.8,23.1,29.13,SW,234,16.0,26.0,51,0.00,,,0.20,Wunderground v.1.15,2013-01-31 17:28:00,
2013-01-31 12:33:00,39.5,23.3,29.13,SSW,201,11.0,22.0,52,0.00,,,0.20,Wunderground v.1.15,2013-01-31 17:33:00,
2013-01-31 12:38:00,39.3,21.7,29.13,WSW,238,22.0,22.0,49,0.00,,,0.20,Wunderground v.1.15,2013-01-31 17:38:00,
2013-01-31 12:43:00,39.1,20.5,29.14,SW,224,5.0,20.0,47,0.00,,,0.20,Wunderground v.1.15,2013-01-31 17:43:00,
2013-01-31 12:48:00,38.8,20.3,29.14,SW,230,13.0,20.0,47,0.00,,,0.20,Wunderground v.1.15,2013-01-31 17:48:00,
2013-01-31 12:53:00,38.5,19.0,29.14,SW,223,8.0,22.0,45,0.00,,,0.20,Wunderground v.1.15,2013-01-31 17:53:00,
2013-01-31 12:58:00,38.3,19.8,29.16,SW,233,14.0,24.0,47,0.00,,,0.20,Wunderground v.1.15,2013-01-31 17:58:00,
2013-01-31 13:03:00,38.2,18.2,29.16,WSW,248,17.0,25.0,44,0.00,,,0.20,Wunderground v.1.15,2013-01-31 18:03:00,
2013-01-31 13:08:00,37.9,15.7,29.16,SW,230,17.0,29.0,40,0.00,,,0.20,Wunderground v.1.15,2013-01-31 18:08:00,
2013-01-31 13:13:00,37.6,19.2,29.18,SSW,211,11.0,29.0,47,0.00,,,0.20,Wunderground v.1.15,2013-01-31 18:13:00,
2013-01-31 13:18:00,36.9,17.5,29.18,WSW,256,18.0,33.0,45,0.00,,,0.20,Wunderground v.1.15,2013-01-31 18:18:00,
2013-01-31 13:23:00,36.3,19.9,29.18,SSW,207,16.0,26.0,51,0.00,,,0.20,Wunderground v.1.15,2013-01-31 18:23:00,
2013-01-31 13:28:00,35.5,22.2,29.18,SW,223,11.0,31.0,58,0.00,,,0.20,Wunderground v.1.15,2013-01-31 18:28:00,
2013-01-31 13:34:00,35.6,19.2,29.18,SSW,211,17.0,23.0,51,0.00,,,0.20,Wunderground v.1.15,2013-01-31 18:34:00,
2013-01-31 13:39:00,35.5,19.6,29.18,SSW,211,13.0,23.0,52,0.00,,,0.20,Wunderground v.1.15,2013-01-31 18:39:00,
2013-01-31 13:44:00,35.5,18.7,29.19,SW,227,12.0,22.0,50,0.00,,,0.20,Wunderground v.1.15,2013-01-31 18:44:00,
2013-01-31 13:49:00,35.5,18.2,29.19,SSW,203,18.0,25.0,49,0.00,,,0.20,Wunderground v.1.15,2013-01-31 18:49:00,
2013-01-31 13:54:00,35.6,17.8,29.19,WSW,240,11.0,18.0,48,0.00,,,0.20,Wunderground v.1.15,2013-01-31 18:54:00,
2013-01-31 13:59:00,35.8,18.5,29.21,WSW,237,13.0,18.0,49,0.00,,,0.20,Wunderground v.1.15,2013-01-31 18:59:00,
2013-01-31 14:04:00,35.5,17.7,29.21,WSW,248,17.0,20.0,48,0.00,,,0.20,Wunderground v.1.15,2013-01-31 19:04:00,
2013-01-31 14:09:00,35.5,18.7,29.21,WSW,237,5.0,22.0,50,0.00,,,0.20,Wunderground v.1.15,2013-01-31 19:09:00,
2013-01-31 14:14:00,35.5,15.2,29.22,WSW,252,17.0,22.0,43,0.00,,,0.20,Wunderground v.1.15,2013-01-31 19:14:00,
2013-01-31 14:19:00,35.6,15.3,29.22,SW,230,16.0,27.0,43,0.00,,,0.20,Wunderground v.1.15,2013-01-31 19:19:00,
2013-01-31 14:24:00,35.3,18.5,29.22,SW,221,11.0,18.0,50,0.00,,,0.20,Wunderground v.1.15,2013-01-31 19:24:00,
2013-01-31 14:29:00,35.0,19.1,29.23,SW,215,7.0,18.0,52,0.00,,,0.20,Wunderground v.1.15,2013-01-31 19:29:00,
2013-01-31 14:34:00,35.0,17.7,29.23,SW,222,10.0,21.0,49,0.00,,,0.20,Wunderground v.1.15,2013-01-31 19:34:00,
2013-01-31 14:39:00,35.0,18.7,29.23,West,259,11.0,22.0,51,0.00,,,0.20,Wunderground v.1.15,2013-01-31 19:39:00,
2013-01-31 14:44:00,35.0,17.3,29.23,SW,227,14.0,31.0,48,0.00,,,0.20,Wunderground v.1.15,2013-01-31 19:44:00,
2013-01-31 14:49:00,35.0,16.3,29.23,West,277,19.0,31.0,46,0.00,,,0.20,Wunderground v.1.15,2013-01-31 19:49:00,
2013-01-31 14:54:00,35.2,17.4,29.23,West,261,6.0,21.0,48,0.00,,,0.20,Wunderground v.1.15,2013-01-31 19:54:00,
2013-01-31 14:59:00,35.2,17.9,29.25,SW,229,11.0,21.0,49,0.00,,,0.20,Wunderground v.1.15,2013-01-31 19:59:00,
2013-01-31 15:04:00,35.0,17.3,29.25,SW,225,5.0,14.0,48,0.00,,,0.20,Wunderground v.1.15,2013-01-31 20:04:00,
2013-01-31 15:09:00,35.0,18.2,29.25,SW,228,7.0,14.0,50,0.00,,,0.20,Wunderground v.1.15,2013-01-31 20:09:00,
2013-01-31 15:14:00,34.9,15.7,29.26,WSW,243,18.0,20.0,45,0.00,,,0.20,Wunderground v.1.15,2013-01-31 20:14:00,
2013-01-31 15:19:00,34.7,16.0,29.26,SW,229,13.0,20.0,46,0.00,,,0.20,Wunderground v.1.15,2013-01-31 20:19:00,
2013-01-31 15:24:00,34.7,17.0,29.26,WSW,238,9.0,22.0,48,0.00,,,0.20,Wunderground v.1.15,2013-01-31 20:24:00,
2013-01-31 15:29:00,34.3,17.1,29.27,SSW,194,9.0,22.0,49,0.00,,,0.20,Wunderground v.1.15,2013-01-31 20:29:00,
2013-01-31 15:34:00,33.8,18.0,29.27,SSW,194,13.0,21.0,52,0.00,,,0.20,Wunderground v.1.15,2013-01-31 20:34:00,
2013-01-31 15:39:00,33.7,17.5,29.27,SW,235,6.0,21.0,51,0.00,,,0.20,Wunderground v.1.15,2013-01-31 20:39:00,
2013-01-31 15:44:00,33.8,16.6,29.29,SW,229,20.0,25.0,49,0.00,,,0.20,Wunderground v.1.15,2013-01-31 20:44:00,
2013-01-31 15:49:00,33.8,16.2,29.29,West,266,13.0,25.0,48,0.00,,,0.20,Wunderground v.1.15,2013-01-31 20:49:00,
2013-01-31 15:54:00,33.8,18.0,29.29,WSW,243,9.0,19.0,52,0.00,,,0.20,Wunderground v.1.15,2013-01-31 20:54:00,
2013-01-31 16:00:00,33.8,16.6,29.30,WSW,246,7.0,10.0,49,0.00,,,0.20,Wunderground v.1.15,2013-01-31 21:00:00,
2013-01-31 16:05:00,33.8,15.2,29.30,WSW,257,14.0,18.0,46,0.00,,,0.20,Wunderground v.1.15,2013-01-31 21:05:00,
2013-01-31 16:10:00,33.8,16.2,29.30,WSW,241,16.0,19.0,48,0.00,,,0.20,Wunderground v.1.15,2013-01-31 21:10:00,
2013-01-31 16:15:00,33.4,17.2,29.31,WSW,253,10.0,19.0,51,0.00,,,0.20,Wunderground v.1.15,2013-01-31 21:15:00,
2013-01-31 16:20:00,32.7,18.7,29.31,SW,227,11.0,14.0,56,0.00,,,0.20,Wunderground v.1.15,2013-01-31 21:20:00,
2013-01-31 16:25:00,32.2,20.2,29.31,WSW,246,5.0,18.0,61,0.00,,,0.20,Wunderground v.1.15,2013-01-31 21:25:00,
2013-01-31 16:30:00,31.6,20.1,29.32,WSW,238,14.0,16.0,62,0.00,,,0.20,Wunderground v.1.15,2013-01-31 21:30:00,
2013-01-31 16:35:00,31.2,20.1,29.32,WSW,246,7.0,21.0,63,0.00,,,0.20,Wunderground v.1.15,2013-01-31 21:35:00,
2013-01-31 16:40:00,31.2,19.3,29.32,WSW,242,11.0,15.0,61,0.00,,,0.20,Wunderground v.1.15,2013-01-31 21:40:00,
2013-01-31 16:45:00,31.5,19.2,29.33,WSW,244,13.0,17.0,60,0.00,,,0.20,Wunderground v.1.15,2013-01-31 21:45:00,
2013-01-31 16:50:00,31.3,18.6,29.33,SW,215,7.0,11.0,59,0.00,,,0.20,Wunderground v.1.15,2013-01-31 21:50:00,
2013-01-31 16:55:00,31.2,18.9,29.33,SW,234,7.0,17.0,60,0.00,,,0.20,Wunderground v.1.15,2013-01-31 21:55:00,
2013-01-31 17:00:00,31.0,19.1,29.34,SW,222,17.0,18.0,61,0.00,,,0.20,Wunderground v.1.15,2013-01-31 22:00:00,
2013-01-31 17:05:00,30.3,21.3,29.34,SW,236,5.0,21.0,69,0.00,,,0.20,Wunderground v.1.15,2013-01-31 22:05:00,
2013-01-31 17:10:00,29.8,21.9,29.34,SW,231,6.0,12.0,72,0.00,,,0.20,Wunderground v.1.15,2013-01-31 22:10:00,
2013-01-31 17:15:00,29.8,22.2,29.35,WSW,246,6.0,12.0,73,0.00,,,0.20,Wunderground v.1.15,2013-01-31 22:15:00,
2013-01-31 17:20:00,29.7,21.8,29.35,SW,229,7.0,10.0,72,0.00,,,0.20,Wunderground v.1.15,2013-01-31 22:20:00,
2013-01-31 17:25:00,29.8,21.9,29.35,WSW,247,5.0,14.0,72,0.00,,,0.20,Wunderground v.1.15,2013-01-31 22:25:00,
2013-01-31 17:30:00,29.8,21.5,29.37,SW,218,5.0,11.0,71,0.00,,,0.20,Wunderground v.1.15,2013-01-31 22:30:00,
2013-01-31 17:35:00,30.0,21.1,29.37,WSW,246,8.0,11.0,69,0.00,,,0.20,Wunderground v.1.15,2013-01-31 22:35:00,
2013-01-31 17:40:00,30.0,20.4,29.37,SSW,200,11.0,11.0,67,0.00,,,0.20,Wunderground v.1.15,2013-01-31 22:40:00,
2013-01-31 17:45:00,29.8,19.8,29.37,SW,233,12.0,13.0,66,0.00,,,0.20,Wunderground v.1.15,2013-01-31 22:45:00,
2013-01-31 17:50:00,30.0,19.7,29.37,WSW,239,5.0,11.0,65,0.00,,,0.20,Wunderground v.1.15,2013-01-31 22:50:00,
2013-01-31 17:55:00,30.0,20.0,29.37,SSW,200,6.0,14.0,66,0.00,,,0.20,Wunderground v.1.15,2013-01-31 22:55:00,
2013-01-31 18:00:00,29.8,20.5,29.38,SSW,205,3.0,7.0,68,0.00,,,0.20,Wunderground v.1.15,2013-01-31 23:00:00,
2013-01-31 18:05:00,29.7,20.1,29.38,SW,220,6.0,10.0,67,0.00,,,0.20,Wunderground v.1.15,2013-01-31 23:05:00,
2013-01-31 18:10:00,29.4,20.5,29.38,SW,216,6.0,7.0,69,0.00,,,0.20,Wunderground v.1.15,2013-01-31 23:10:00,
2013-01-31 18:15:00,29.3,20.4,29.39,South,190,16.0,16.0,69,0.00,,,0.20,Wunderground v.1.15,2013-01-31 23:15:00,
2013-01-31 18:20:00,29.1,20.2,29.39,SSW,205,8.0,9.0,69,0.00,,,0.20,Wunderground v.1.15,2013-01-31 23:20:00,
2013-01-31 18:25:00,29.1,19.8,29.39,SSW,207,3.0,10.0,68,0.00,,,0.20,Wunderground v.1.15,2013-01-31 23:25:00,
2013-01-31 18:30:00,29.1,19.8,29.40,SW,221,6.0,7.0,68,0.00,,,0.20,Wunderground v.1.15,2013-01-31 23:30:00,
2013-01-31 18:35:00,29.3,19.0,29.40,WSW,254,1.0,9.0,65,0.00,,,0.20,Wunderground v.1.15,2013-01-31 23:35:00,
2013-01-31 18:40:00,29.4,19.4,29.40,West,265,4.0,4.0,66,0.00,,,0.20,Wunderground v.1.15,2013-01-31 23:40:00,
2013-01-31 18:45:00,29.4,19.4,29.41,WNW,295,0.0,6.0,66,0.00,,,0.20,Wunderground v.1.15,2013-01-31 23:45:00,
2013-01-31 18:50:00,29.4,18.0,29.41,West,275,15.0,22.0,62,0.00,,,0.20,Wunderground v.1.15,2013-01-31 23:50:00,
2013-01-31 18:55:00,30.1,11.3,29.41,WNW,287,13.0,22.0,45,0.00,,,0.20,Wunderground v.1.15,2013-01-31 23:55:00,
2013-01-31 19:00:00,30.3,10.4,29.43,West,275,15.0,15.0,43,0.00,,,0.20,Wunderground v.1.15,2013-02-01 00:00:00,
2013-01-31 19:05:00,30.3,9.4,29.43,WNW,284,19.0,20.0,41,0.00,,,0.20,Wunderground v.1.15,2013-02-01 00:05:00,
2013-01-31 19:10:00,30.3,8.3,29.43,West,265,13.0,21.0,39,0.00,,,0.20,Wunderground v.1.15,2013-02-01 00:10:00,
2013-01-31 19:15:00,30.1,6.9,29.44,WNW,283,23.0,40.0,37,0.00,,,0.20,Wunderground v.1.15,2013-02-01 00:15:00,
2013-01-31 19:20:00,30.0,9.6,29.44,NW,319,20.0,23.0,42,0.00,,,0.20,Wunderground v.1.15,2013-02-01 00:20:00,
2013-01-31 19:25:00,29.8,8.9,29.45,West,275,11.0,23.0,41,0.00,,,0.20,Wunderground v.1.15,2013-02-01 00:25:00,
2013-01-31 19:30:00,29.7,9.9,29.45,West,273,10.0,21.0,43,0.00,,,0.20,Wunderground v.1.15,2013-02-01 00:30:00,
2013-01-31 19:35:00,29.5,10.2,29.45,NNW,327,13.0,22.0,44,0.00,,,0.20,Wunderground v.1.15,2013-02-01 00:35:00,
2013-01-31 19:40:00,29.4,9.1,29.46,WNW,303,20.0,20.0,42,0.00,,,0.20,Wunderground v.1.15,2013-02-01 00:40:00,
2013-01-31 19:46:00,29.3,9.5,29.46,NW,304,10.0,20.0,43,0.00,,,0.20,Wunderground v.1.15,2013-02-01 00:46:00,
2013-01-31 19:51:00,29.1,9.9,29.46,NW,310,21.0,21.0,44,0.00,,,0.20,Wunderground v.1.15,2013-02-01 00:51:00,
2013-01-31 19:56:00,28.8,9.1,29.46,NW,311,9.0,21.0,43,0.00,,,0.20,Wunderground v.1.15,2013-02-01 00:56:00,
2013-01-31 20:01:00,28.7,9.5,29.46,NW,310,9.0,18.0,44,0.00,,,0.20,Wunderground v.1.15,2013-02-01 01:01:00,
2013-01-31 20:06:00,28.7,10.5,29.46,NNW,333,13.0,18.0,46,0.00,,,0.20,Wunderground v.1.15,2013-02-01 01:06:00,
2013-01-31 20:11:00,28.5,10.3,29.48,WNW,300,5.0,12.0,46,0.00,,,0.20,Wunderground v.1.15,2013-02-01 01:11:00,
2013-01-31 20:16:00,28.4,10.2,29.48,NW,313,17.0,17.0,46,0.00,,,0.20,Wunderground v.1.15,2013-02-01 01:16:00,
2013-01-31 20:21:00,28.1,10.4,29.48,WNW,295,14.0,14.0,47,0.00,,,0.20,Wunderground v.1.15,2013-02-01 01:21:00,
2013-01-31 20:26:00,28.2,8.0,29.48,WNW,302,17.0,31.0,42,0.00,,,0.20,Wunderground v.1.15,2013-02-01 01:26:00,
2013-01-31 20:31:00,28.1,8.4,29.48,NW,322,18.0,21.0,43,0.00,,,0.20,Wunderground v.1.15,2013-02-01 01:31:00,
2013-01-31 20:36:00,27.9,7.7,29.48,North,349,15.0,28.0,42,0.00,,,0.20,Wunderground v.1.15,2013-02-01 01:36:00,
2013-01-31 20:41:00,27.9,7.7,29.49,WNW,294,14.0,22.0,42,0.00,,,0.20,Wunderground v.1.15,2013-02-01 01:41:00,
2013-01-31 20:46:00,27.8,7.1,29.49,NNW,336,17.0,30.0,41,0.00,,,0.20,Wunderground v.1.15,2013-02-01 01:46:00,
2013-01-31 20:51:00,27.8,6.6,29.49,NW,313,19.0,27.0,40,0.00,,,0.20,Wunderground v.1.15,2013-02-01 01:51:00,
2013-01-31 20:56:00,27.6,7.5,29.49,NW,306,9.0,27.0,42,0.00,,,0.20,Wunderground v.1.15,2013-02-01 01:56:00,
2013-01-31 21:01:00,27.5,7.4,29.49,WNW,283,13.0,21.0,42,0.00,,,0.20,Wunderground v.1.15,2013-02-01 02:01:00,
2013-01-31 21:06:00,27.5,7.4,29.49,NW,319,16.0,26.0,42,0.00,,,0.20,Wunderground v.1.15,2013-02-01 02:06:00,
2013-01-31 21:11:00,27.3,7.2,29.50,NW,326,7.0,28.0,42,0.00,,,0.20,Wunderground v.1.15,2013-02-01 02:11:00,
2013-01-31 21:16:00,27.3,7.7,29.50,North,355,12.0,34.0,43,0.00,,,0.20,Wunderground v.1.15,2013-02-01 02:16:00,
2013-01-31 21:22:00,27.2,7.6,29.50,NW,305,18.0,20.0,43,0.00,,,0.20,Wunderground v.1.15,2013-02-01 02:22:00,
2013-01-31 21:27:00,27.0,6.9,29.51,WNW,297,16.0,30.0,42,0.00,,,0.20,Wunderground v.1.15,2013-02-01 02:27:00,
2013-01-31 21:32:00,26.9,7.4,29.51,NW,319,13.0,28.0,43,0.00,,,0.20,Wunderground v.1.15,2013-02-01 02:32:00,
2013-01-31 21:37:00,26.7,7.2,29.51,NW,313,24.0,28.0,43,0.00,,,0.20,Wunderground v.1.15,2013-02-01 02:37:00,
2013-01-31 21:42:00,26.7,7.2,29.51,NW,319,21.0,21.0,43,0.00,,,0.20,Wunderground v.1.15,2013-02-01 02:42:00,
2013-01-31 21:47:00,26.7,7.7,29.51,West,280,7.0,31.0,44,0.00,,,0.20,Wunderground v.1.15,2013-02-01 02:47:00,
2013-01-31 21:52:00,26.6,7.1,29.51,NW,308,14.0,26.0,43,0.00,,,0.20,Wunderground v.1.15,2013-02-01 02:52:00,
2013-01-31 21:57:00,26.6,7.1,29.52,West,275,12.0,26.0,43,0.00,,,0.20,Wunderground v.1.15,2013-02-01 02:57:00,
2013-01-31 22:02:00,26.4,6.9,29.52,WNW,295,12.0,19.0,43,0.00,,,0.20,Wunderground v.1.15,2013-02-01 03:02:00,
2013-01-31 22:07:00,26.3,6.8,29.52,WNW,286,4.0,28.0,43,0.00,,,0.20,Wunderground v.1.15,2013-02-01 03:07:00,
2013-01-31 22:12:00,26.3,7.8,29.52,NW,309,11.0,17.0,45,0.00,,,0.20,Wunderground v.1.15,2013-02-01 03:12:00,
2013-01-31 22:17:00,26.1,6.6,29.52,WNW,294,10.0,23.0,43,0.00,,,0.20,Wunderground v.1.15,2013-02-01 03:17:00,
2013-01-31 22:22:00,26.0,7.0,29.52,WNW,282,16.0,19.0,44,0.00,,,0.20,Wunderground v.1.15,2013-02-01 03:22:00,
2013-01-31 22:27:00,25.8,6.3,29.53,West,267,16.0,20.0,43,0.00,,,0.20,Wunderground v.1.15,2013-02-01 03:27:00,
2013-01-31 22:32:00,25.8,6.3,29.53,WNW,292,22.0,22.0,43,0.00,,,0.20,Wunderground v.1.15,2013-02-01 03:32:00,
2013-01-31 22:37:00,25.7,6.8,29.53,NW,311,19.0,22.0,44,0.00,,,0.20,Wunderground v.1.15,2013-02-01 03:37:00,
2013-01-31 22:42:00,25.7,6.3,29.54,WNW,289,15.0,24.0,43,0.00,,,0.20,Wunderground v.1.15,2013-02-01 03:42:00,
2013-01-31 22:47:00,25.6,6.2,29.54,WNW,292,13.0,27.0,43,0.00,,,0.20,Wunderground v.1.15,2013-02-01 03:47:00,
2013-01-31 22:52:00,25.4,6.5,29.54,NNW,342,13.0,23.0,44,0.00,,,0.20,Wunderground v.1.15,2013-02-01 03:52:00,
2013-01-31 22:57:00,25.4,6.5,29.54,WNW,296,16.0,24.0,44,0.00,,,0.20,Wunderground v.1.15,2013-02-01 03:57:00,
2013-01-31 23:02:00,25.3,6.9,29.54,WNW,303,12.0,16.0,45,0.00,,,0.20,Wunderground v.1.15,2013-02-01 04:02:00,
2013-01-31 23:07:00,25.3,6.9,29.54,NW,323,18.0,27.0,45,0.00,,,0.20,Wunderground v.1.15,2013-02-01 04:07:00,
2013-01-31 23:12:00,25.3,6.4,29.54,NW,307,10.0,21.0,44,0.00,,,0.20,Wunderground v.1.15,2013-02-01 04:12:00,
2013-01-31 23:17:00,25.1,6.7,29.54,NW,309,17.0,24.0,45,0.00,,,0.20,Wunderground v.1.15,2013-02-01 04:17:00,
2013-01-31 23:22:00,25.1,6.2,29.54,WNW,291,15.0,19.0,44,0.00,,,0.20,Wunderground v.1.15,2013-02-01 04:22:00,
2013-01-31 23:27:00,25.1,5.7,29.54,WSW,258,13.0,20.0,43,0.00,,,0.20,Wunderground v.1.15,2013-02-01 04:27:00,
2013-01-31 23:32:00,25.1,5.7,29.54,WNW,296,13.0,23.0,43,0.00,,,0.20,Wunderground v.1.15,2013-02-01 04:32:00,
2013-01-31 23:37:00,25.1,5.2,29.54,NW,313,18.0,30.0,42,0.00,,,0.20,Wunderground v.1.15,2013-02-01 04:37:00,
2013-01-31 23:42:00,25.1,5.7,29.54,WNW,300,7.0,25.0,43,0.00,,,0.20,Wunderground v.1.15,2013-02-01 04:42:00,
2013-01-31 23:47:00,25.0,5.1,29.54,WNW,290,14.0,25.0,42,0.00,,,0.20,Wunderground v.1.15,2013-02-01 04:47:00,
2013-01-31 23:52:00,25.0,7.1,29.54,NW,307,10.0,17.0,46,0.00,,,0.20,Wunderground v.1.15,2013-02-01 04:52:00,
2013-01-31 23:57:00,25.0,6.6,29.54,NW,306,12.0,22.0,45,0.00,,,0.20,Wunderground v.1.15,2013-02-01 04:57:00,